.
WxDataArchive / Data Records for 2012-08-19
2012-08-18 August 2012 2012-08-20

Data Records for Sunday, 19 August 2012

Time	Temp	Chill	HIndex	Humid	Dewpt	 Wind 	HiWind	WindDir	Rain 	Barom 
-----	----	-----	------	-----	-----	------	------	-------	-----	----- 
00:00	58.0	58.0	58.0	77	50.8	0	0	---	0.00	29.948 
00:05	57.8	57.8	57.8	78	51.0	0	0	---	0.00	29.948 
00:10	57.6	57.6	57.6	78	50.8	0	0	---	0.00	29.948 
00:15	57.6	57.6	57.6	78	50.8	0	0	---	0.00	29.948 
00:20	57.5	57.5	57.5	79	51.0	0	0	---	0.00	29.948 
00:25	57.3	57.3	57.3	79	50.8	0	0	---	0.00	29.948 
00:30	57.3	57.3	57.3	79	50.8	0	0	---	0.00	29.948 
00:35	57.2	57.2	57.2	80	51.1	0	0	---	0.00	29.948 
00:40	57.0	57.0	57.0	80	50.9	0	0	---	0.00	29.948 
00:45	57.0	57.0	57.0	80	50.9	0	0	---	0.00	29.949 
00:50	56.9	56.9	56.9	81	51.1	0	0	---	0.00	29.949 
00:55	56.9	56.9	56.9	81	51.1	0	0	---	0.00	29.949 
01:00	56.9	56.9	56.9	81	51.1	0	0	---	0.00	29.950 
01:05	56.7	56.7	56.7	82	51.3	0	0	---	0.00	29.950 
01:10	56.6	56.6	56.6	82	51.2	0	0	---	0.00	29.950 
01:15	56.5	56.5	56.5	83	51.4	0	0	---	0.00	29.949 
01:20	56.5	56.5	56.5	83	51.4	0	0	---	0.00	29.949 
01:25	56.3	56.3	56.3	83	51.2	0	0	---	0.00	29.949 
01:30	56.3	56.3	56.3	84	51.5	0	0	---	0.00	29.948 
01:35	56.5	56.5	56.5	84	51.7	0	0	---	0.00	29.948 
01:40	56.5	56.5	56.5	84	51.7	0	0	---	0.00	29.948 
01:45	56.3	56.3	56.3	84	51.5	0	0	---	0.00	29.947 
01:50	56.3	56.3	56.3	84	51.5	0	0	---	0.00	29.947 
01:55	56.3	56.3	56.3	84	51.5	0	0	---	0.00	29.947 
02:00	56.3	56.3	56.3	84	51.5	0	0	---	0.00	29.943 
02:05	56.5	56.5	56.5	84	51.7	0	0	---	0.00	29.943 
02:10	56.3	56.3	56.3	84	51.5	0	0	---	0.00	29.943 
02:15	56.3	56.3	56.3	84	51.5	0	0	---	0.00	29.946 
02:20	56.3	56.3	56.3	85	51.8	0	0	---	0.00	29.946 
02:25	56.3	56.3	56.3	84	51.5	0	0	---	0.00	29.946 
02:30	56.3	56.3	56.3	84	51.5	0	0	---	0.00	29.942 
02:35	56.3	56.3	56.3	85	51.8	0	0	---	0.00	29.942 
02:40	56.3	56.3	56.3	85	51.8	0	0	---	0.00	29.942 
02:45	56.3	56.3	56.3	85	51.8	0	0	---	0.00	29.937 
02:50	56.5	56.5	56.5	85	52.0	0	0	---	0.00	29.937 
02:55	56.5	56.5	56.5	85	52.0	0	0	---	0.00	29.937 
03:00	56.6	56.6	56.6	85	52.1	0	0	---	0.00	29.932 
03:05	56.7	56.7	56.7	85	52.2	0	0	---	0.00	29.932 
03:10	56.9	56.9	56.9	84	52.1	0	0	---	0.00	29.932 
03:15	56.9	56.9	56.9	84	52.1	0	0	---	0.00	29.932 
03:20	56.9	56.9	56.9	84	52.1	0	0	---	0.00	29.932 
03:25	56.9	56.9	56.9	83	51.8	0	0	---	0.00	29.932 
03:30	56.7	56.7	56.7	83	51.6	0	0	---	0.00	29.932 
03:35	56.7	56.7	56.7	83	51.6	0	0	---	0.00	29.932 
03:40	56.7	56.7	56.7	83	51.6	0	0	---	0.00	29.932 
03:45	56.6	56.6	56.6	84	51.8	0	0	---	0.00	29.929 
03:50	56.6	56.6	56.6	84	51.8	0	0	---	0.00	29.929 
03:55	56.6	56.6	56.6	84	51.8	0	0	---	0.00	29.929 
04:00	56.5	56.5	56.5	84	51.7	0	0	---	0.00	29.931 
04:05	56.5	56.5	56.5	84	51.7	0	0	---	0.00	29.931 
04:10	56.5	56.5	56.5	84	51.7	0	0	---	0.00	29.931 
04:15	56.5	56.5	56.5	85	52.0	0	0	---	0.00	29.929 
04:20	56.5	56.5	56.5	85	52.0	0	0	---	0.00	29.929 
04:25	56.3	56.3	56.3	85	51.8	0	0	---	0.00	29.929 
04:30	56.3	56.3	56.3	86	52.2	0	0	---	0.00	29.928 
04:35	56.3	56.3	56.3	86	52.2	0	0	---	0.00	29.928 
04:40	56.2	56.2	56.2	87	52.4	0	0	---	0.00	29.928 
04:45	56.2	56.2	56.2	87	52.4	0	0	---	0.00	29.918 
04:50	56.2	56.2	56.2	87	52.4	0	0	---	0.00	29.918 
04:55	56.0	56.0	56.0	87	52.2	0	0	---	0.00	29.918 
05:00	56.0	56.0	56.0	87	52.2	0	0	---	0.00	29.918 
05:05	55.9	55.9	55.9	87	52.1	0	0	---	0.00	29.918 
05:10	55.9	55.9	55.9	88	52.4	0	0	---	0.00	29.918 
05:15	55.7	55.7	55.7	88	52.2	0	0	---	0.00	29.920 
05:20	55.7	55.7	55.7	88	52.2	0	0	---	0.00	29.920 
05:25	55.7	55.7	55.7	88	52.2	0	0	---	0.00	29.920 
05:30	55.6	55.6	55.6	88	52.1	0	0	---	0.00	29.907 
05:35	55.6	55.6	55.6	88	52.1	0	0	---	0.00	29.907 
05:40	55.4	55.4	55.4	88	51.9	0	0	---	0.00	29.907 
05:45	55.4	55.4	55.4	88	51.9	0	0	---	0.00	29.907 
05:50	55.3	55.3	55.3	88	51.8	0	0	---	0.00	29.907 
05:55	55.1	55.1	55.1	88	51.6	0	0	---	0.00	29.907 
06:00	55.1	55.1	55.1	88	51.6	0	0	---	0.00	29.905 
06:05	55.0	55.0	55.0	88	51.5	0	0	---	0.00	29.905 
06:10	54.8	54.8	54.8	89	51.6	0	0	---	0.00	29.905 
06:15	54.8	54.8	54.8	89	51.6	0	0	---	0.00	29.906 
06:20	54.7	54.7	54.7	89	51.5	0	0	---	0.00	29.906 
06:25	54.7	54.7	54.7	89	51.5	0	0	---	0.00	29.906 
06:30	54.5	54.5	54.5	89	51.3	0	0	---	0.00	29.908 
06:35	54.5	54.5	54.5	89	51.3	0	0	---	0.00	29.908 
06:40	54.4	54.4	54.4	89	51.2	0	0	---	0.00	29.908 
06:45	54.4	54.4	54.4	90	51.5	0	0	---	0.00	29.908 
06:50	54.4	54.4	54.4	90	51.5	0	0	---	0.00	29.908 
06:55	54.2	54.2	54.2	90	51.3	0	0	---	0.00	29.908 
07:00	54.1	54.1	54.1	90	51.2	0	0	---	0.00	29.915 
07:05	54.1	54.1	54.1	90	51.2	0	0	---	0.00	29.915 
07:10	53.9	53.9	53.9	90	51.0	0	0	---	0.00	29.915 
07:15	53.9	53.9	53.9	90	51.0	0	0	---	0.00	29.924 
07:20	53.9	53.9	53.9	90	51.0	0	0	---	0.00	29.924 
07:25	53.9	53.9	53.9	91	51.3	0	0	---	0.00	29.924 
07:30	53.9	53.9	53.9	91	51.3	0	0	---	0.00	29.926 
07:35	53.9	53.9	53.9	91	51.3	0	0	---	0.00	29.926 
07:40	54.1	54.1	54.1	91	51.5	0	0	---	0.00	29.926 
07:45	54.4	54.4	54.4	91	51.8	0	0	---	0.00	29.934 
07:50	54.7	54.7	54.7	92	52.4	0	0	---	0.00	29.934 
07:55	55.0	55.0	55.0	92	52.7	0	0	---	0.00	29.934 
08:00	55.3	55.3	55.3	92	53.0	0	0	---	0.00	29.935 
08:05	55.7	55.7	55.7	92	53.4	0	0	---	0.00	29.935 
08:10	56.2	56.2	56.2	92	53.9	0	0	---	0.00	29.935 
08:15	56.5	56.5	56.5	91	53.9	0	0	---	0.00	29.944 
08:20	57.0	57.0	57.0	91	54.4	0	0	---	0.00	29.944 
08:25	57.6	57.6	57.6	90	54.7	0	0	---	0.00	29.944 
08:30	58.4	58.4	58.4	90	55.5	0	0	---	0.00	29.938 
08:35	59.3	59.3	59.3	88	55.7	0	0	---	0.00	29.938 
08:40	60.1	60.1	60.1	83	54.9	0	1	90	0.00	29.938 
08:45	60.7	60.7	60.7	77	53.4	0	1	90	0.00	29.943 
08:50	61.5	61.5	61.5	75	53.5	0	2	90	0.00	29.943 
08:55	62.0	62.0	62.0	72	52.9	0	2	90	0.00	29.943 
09:00	62.3	62.3	62.3	72	53.2	0	0	---	0.00	29.942 
09:05	62.4	62.4	62.4	72	53.2	0	0	---	0.00	29.942 
09:10	62.3	62.3	62.3	73	53.5	0	0	---	0.00	29.942 
09:15	62.4	62.4	62.4	72	53.2	0	0	---	0.00	29.952 
09:20	62.6	62.6	62.6	72	53.4	0	0	---	0.00	29.952 
09:25	63.1	63.1	63.1	72	53.9	0	1	90	0.00	29.952 
09:30	63.5	63.5	63.5	71	53.9	0	0	---	0.00	29.953 
09:35	64.2	64.2	64.2	70	54.2	0	0	---	0.00	29.953 
09:40	64.7	64.7	64.7	69	54.3	0	1	90	0.00	29.953 
09:45	65.0	65.0	65.0	70	55.0	0	0	---	0.00	29.953 
09:50	65.3	65.3	65.3	69	54.9	0	1	90	0.00	29.953 
09:55	65.5	65.5	65.5	67	54.2	0	1	90	0.00	29.953 
10:00	65.6	65.6	65.6	69	55.1	0	1	90	0.00	29.955 
10:05	66.0	66.0	66.0	69	55.5	0	1	90	0.00	29.955 
10:10	66.1	66.1	66.1	66	54.4	0	1	90	0.00	29.955 
10:15	66.4	66.4	66.4	67	55.1	0	1	90	0.00	29.954 
10:20	66.9	66.9	66.9	65	54.7	0	2	90	0.00	29.954 
10:25	67.4	67.4	67.4	64	54.8	0	1	90	0.00	29.954 
10:30	68.1	68.1	68.1	63	55.0	0	2	90	0.00	29.954 
10:35	68.1	68.1	68.1	59	53.2	0	2	90	0.00	29.954 
10:40	68.4	68.4	68.4	58	53.0	0	1	90	0.00	29.954 
10:45	68.9	68.9	68.9	58	53.5	0	1	90	0.00	29.952 
10:50	69.6	69.6	69.6	56	53.2	0	1	90	0.00	29.952 
10:55	69.9	69.9	69.9	54	52.5	0	2	90	0.00	29.952 
11:00	70.3	70.3	70.3	53	52.3	0	2	0	0.00	29.950 
11:05	70.6	70.6	70.6	53	52.6	0	1	0	0.00	29.950 
11:10	71.1	71.1	71.1	53	53.1	0	1	0	0.00	29.950 
11:15	71.6	71.6	71.6	50	52.0	0	1	0	0.00	29.948 
11:20	72.3	72.3	72.3	46	50.3	0	1	0	0.00	29.948 
11:25	72.5	72.5	72.5	48	51.7	1	3	270	0.00	29.948 
11:30	72.8	72.8	72.8	48	52.0	0	2	270	0.00	29.947 
11:35	73.7	73.7	73.7	45	51.0	0	3	270	0.00	29.947 
11:40	74.0	74.0	74.0	47	52.5	0	3	270	0.00	29.947 
11:45	74.0	74.0	74.0	46	51.9	0	2	270	0.00	29.945 
11:50	74.7	74.7	74.7	46	52.5	0	2	270	0.00	29.945 
11:55	74.6	74.6	74.6	43	50.6	0	2	270	0.00	29.945 
12:00	74.6	74.6	74.6	43	50.6	0	2	270	0.00	29.946 
12:05	75.3	75.3	77.5	39	48.6	0	2	270	0.00	29.946 
12:10	75.4	75.4	77.6	39	48.7	1	3	270	0.00	29.946 
12:15	75.1	75.1	77.5	39	48.4	1	4	90	0.00	29.945 
12:20	74.9	74.9	74.9	39	48.3	0	2	90	0.00	29.945 
12:25	74.7	74.7	74.7	39	48.1	2	4	270	0.00	29.945 
12:30	75.1	75.1	77.6	42	50.4	0	1	270	0.00	29.941 
12:35	75.4	75.4	77.6	39	48.7	0	4	45	0.00	29.941 
12:40	75.3	75.3	77.5	38	47.9	0	2	338	0.00	29.941 
12:45	75.8	75.8	77.8	41	50.4	0	3	338	0.00	29.934 
12:50	75.8	75.8	77.7	39	49.1	0	3	338	0.00	29.934 
12:55	75.6	75.6	77.7	40	49.6	1	3	90	0.00	29.934 
13:00	75.6	75.6	77.6	39	48.9	0	3	90	0.00	29.931 
13:05	75.8	75.8	77.6	37	47.7	1	4	90	0.00	29.931 
13:10	76.0	76.0	77.9	43	51.9	0	1	90	0.00	29.931 
13:15	76.0	76.0	77.9	43	51.9	0	2	90	0.00	29.923 
13:20	75.8	75.8	77.7	39	49.1	1	4	68	0.00	29.923 
13:25	75.4	75.4	77.5	37	47.3	1	3	270	0.00	29.923 
13:30	75.4	75.4	77.7	42	50.7	1	3	270	0.00	29.924 
13:35	75.3	75.3	77.5	38	47.9	1	4	0	0.00	29.924 
13:40	75.3	75.3	77.5	39	48.6	0	1	0	0.00	29.924 
13:45	75.6	75.6	77.3	33	44.5	0	3	0	0.00	29.923 
13:50	75.8	75.8	77.2	30	42.1	1	2	0	0.00	29.923 
13:55	76.3	76.3	77.5	31	43.4	0	2	0	0.00	29.923 
14:00	76.7	76.7	77.6	31	43.8	1	4	90	0.00	29.918 
14:05	76.7	76.7	77.7	33	45.4	1	3	90	0.00	29.918 
14:10	77.2	77.2	78.1	35	47.4	0	2	135	0.00	29.918 
14:15	77.4	77.4	78.1	34	46.8	0	2	135	0.00	29.914 
14:20	76.1	76.1	77.6	35	46.4	0	4	270	0.00	29.914 
14:25	74.9	74.9	74.9	37	46.9	1	2	270	0.00	29.914 
14:30	75.1	75.1	77.3	35	45.6	1	3	270	0.00	29.913 
14:35	75.6	75.6	77.4	35	46.0	0	2	315	0.00	29.913 
14:40	76.1	76.1	77.4	31	43.3	1	2	315	0.00	29.913 
14:45	76.8	76.8	77.8	33	45.5	0	2	315	0.00	29.907 
14:50	77.2	77.2	77.9	33	45.8	0	2	315	0.00	29.907 
14:55	77.4	77.4	78.2	36	48.3	0	3	315	0.00	29.907 
15:00	77.4	77.4	78.1	35	47.6	0	2	338	0.00	29.903 
15:05	77.4	77.4	78.3	38	49.8	0	3	338	0.00	29.903 
15:10	77.4	77.4	78.1	35	47.6	2	4	90	0.00	29.903 
15:15	77.0	77.0	78.0	36	48.0	2	4	112	0.00	29.899 
15:20	76.8	76.8	78.0	37	48.5	1	3	112	0.00	29.899 
15:25	76.3	76.3	77.7	36	47.4	0	1	112	0.00	29.899 
15:30	76.1	76.1	77.7	36	47.2	0	2	22	0.00	29.898 
15:35	76.7	76.7	77.9	36	47.7	0	3	22	0.00	29.898 
15:40	77.2	77.2	77.9	32	45.0	1	3	22	0.00	29.898 
15:45	77.2	77.2	77.8	30	43.3	1	3	315	0.00	29.890 
15:50	77.4	77.4	78.0	32	45.2	1	5	315	0.00	29.890 
15:55	77.6	77.6	78.2	34	47.0	1	2	112	0.00	29.890 
16:00	77.9	77.9	78.6	38	50.2	0	2	112	0.00	29.888 
16:05	78.1	78.1	78.2	31	45.0	0	2	112	0.00	29.888 
16:10	78.3	78.3	78.7	37	49.9	1	4	112	0.00	29.888 
16:15	77.7	77.7	78.3	35	47.8	1	3	292	0.00	29.886 
16:20	76.8	76.8	77.8	34	46.3	0	1	292	0.00	29.886 
16:25	76.0	76.0	77.5	34	45.6	0	1	292	0.00	29.886 
16:30	75.4	75.4	77.2	32	43.5	1	3	0	0.00	29.888 
16:35	75.1	75.1	77.3	36	46.3	0	1	0	0.00	29.888 
16:40	74.6	74.6	74.6	36	45.9	0	1	0	0.00	29.888 
16:45	74.4	74.4	74.4	37	46.4	0	1	0	0.00	29.887 
16:50	74.7	74.7	74.7	39	48.1	0	1	0	0.00	29.887 
16:55	75.6	75.6	77.6	39	48.9	0	1	0	0.00	29.887 
17:00	76.3	76.3	77.7	35	46.6	1	4	90	0.00	29.885 
17:05	76.3	76.3	77.7	35	46.6	1	4	90	0.00	29.885 
17:10	76.0	76.0	77.6	36	47.1	0	3	90	0.00	29.885 
17:15	75.1	75.1	77.4	37	47.0	0	1	90	0.00	29.885 
17:20	74.4	74.4	74.4	36	45.7	0	1	90	0.00	29.885 
17:25	73.9	73.9	73.9	38	46.7	0	0	---	0.00	29.885 
17:30	73.5	73.5	73.5	38	46.3	0	0	---	0.00	29.887 
17:35	73.7	73.7	73.7	39	47.2	0	1	90	0.00	29.887 
17:40	74.2	74.2	74.2	36	45.5	0	1	90	0.00	29.887 
17:45	74.9	74.9	74.9	34	44.6	0	1	90	0.00	29.881 
17:50	75.3	75.3	77.4	35	45.7	0	1	90	0.00	29.881 
17:55	74.9	74.9	74.9	36	46.1	0	1	90	0.00	29.881 
18:00	74.6	74.6	74.6	37	46.6	0	2	90	0.00	29.880 
18:05	74.9	74.9	74.9	37	46.9	0	1	90	0.00	29.880 
18:10	74.9	74.9	74.9	36	46.1	0	1	90	0.00	29.880 
18:15	75.1	75.1	77.3	36	46.3	0	2	90	0.00	29.879 
18:20	75.3	75.3	77.3	34	45.0	0	2	90	0.00	29.879 
18:25	75.3	75.3	77.4	35	45.7	0	2	90	0.00	29.879 
18:30	75.4	75.4	77.4	35	45.8	0	2	90	0.00	29.881 
18:35	75.3	75.3	77.4	35	45.7	0	1	90	0.00	29.881 
18:40	75.3	75.3	77.2	33	44.2	0	1	90	0.00	29.881 
18:45	75.3	75.3	77.2	33	44.2	0	2	90	0.00	29.877 
18:50	75.4	75.4	77.3	33	44.3	0	2	90	0.00	29.877 
18:55	75.3	75.3	77.3	34	45.0	0	1	90	0.00	29.877 
19:00	75.3	75.3	77.2	32	43.4	0	2	90	0.00	29.878 
19:05	75.4	75.4	77.3	34	45.1	0	1	90	0.00	29.878 
19:10	75.3	75.3	77.3	34	45.0	0	2	90	0.00	29.878 
19:15	75.1	75.1	77.3	35	45.6	0	2	90	0.00	29.874 
19:20	74.6	74.6	74.6	37	46.6	0	2	90	0.00	29.874 
19:25	74.2	74.2	74.2	39	47.6	0	1	90	0.00	29.874 
19:30	73.9	73.9	73.9	39	47.4	0	2	90	0.00	29.879 
19:35	73.7	73.7	73.7	40	47.9	0	1	90	0.00	29.879 
19:40	73.5	73.5	73.5	40	47.7	0	2	90	0.00	29.879 
19:45	73.3	73.3	73.3	43	49.4	0	1	90	0.00	29.884 
19:50	73.0	73.0	73.0	43	49.2	0	0	---	0.00	29.884 
19:55	72.7	72.7	72.7	44	49.5	0	0	---	0.00	29.884 
20:00	72.3	72.3	72.3	44	49.2	0	0	---	0.00	29.885 
20:05	72.1	72.1	72.1	45	49.6	0	0	---	0.00	29.885 
20:10	71.8	71.8	71.8	46	49.9	0	0	---	0.00	29.885 
20:15	71.5	71.5	71.5	46	49.6	0	0	---	0.00	29.881 
20:20	71.1	71.1	71.1	47	49.8	0	0	---	0.00	29.881 
20:25	70.6	70.6	70.6	48	49.9	0	0	---	0.00	29.881 
20:30	70.1	70.1	70.1	48	49.5	0	0	---	0.00	29.883 
20:35	69.8	69.8	69.8	49	49.8	0	0	---	0.00	29.883 
20:40	69.4	69.4	69.4	50	49.9	0	0	---	0.00	29.883 
20:45	68.9	68.9	68.9	51	50.0	0	0	---	0.00	29.885 
20:50	68.4	68.4	68.4	51	49.6	0	0	---	0.00	29.885 
20:55	68.1	68.1	68.1	53	50.3	0	0	---	0.00	29.885 
21:00	67.6	67.6	67.6	54	50.4	0	0	---	0.00	29.886 
21:05	67.1	67.1	67.1	54	49.9	0	0	---	0.00	29.886 
21:10	66.8	66.8	66.8	56	50.6	0	0	---	0.00	29.886 
21:15	66.4	66.4	66.4	57	50.7	0	0	---	0.00	29.891 
21:20	66.0	66.0	66.0	58	50.8	0	0	---	0.00	29.891 
21:25	65.5	65.5	65.5	59	50.8	0	0	---	0.00	29.891 
21:30	65.2	65.2	65.2	60	51.0	0	0	---	0.00	29.899 
21:35	64.7	64.7	64.7	60	50.5	0	0	---	0.00	29.899 
21:40	64.5	64.5	64.5	62	51.2	0	0	---	0.00	29.899 
21:45	64.2	64.2	64.2	63	51.3	0	0	---	0.00	29.901 
21:50	63.9	63.9	63.9	64	51.5	0	0	---	0.00	29.901 
21:55	63.5	63.5	63.5	64	51.1	0	0	---	0.00	29.901 
22:00	63.2	63.2	63.2	64	50.8	0	0	---	0.00	29.904 
22:05	63.1	63.1	63.1	64	50.7	0	0	---	0.00	29.904 
22:10	62.9	62.9	62.9	64	50.5	0	0	---	0.00	29.904 
22:15	62.7	62.7	62.7	65	50.8	0	0	---	0.00	29.907 
22:20	62.6	62.6	62.6	65	50.7	0	0	---	0.00	29.907 
22:25	62.3	62.3	62.3	65	50.4	0	0	---	0.00	29.907 
22:30	62.1	62.1	62.1	66	50.6	0	0	---	0.00	29.910 
22:35	61.8	61.8	61.8	67	50.7	0	0	---	0.00	29.910 
22:40	61.5	61.5	61.5	67	50.4	0	0	---	0.00	29.910 
22:45	61.3	61.3	61.3	68	50.6	0	0	---	0.00	29.912 
22:50	61.0	61.0	61.0	69	50.8	0	0	---	0.00	29.912 
22:55	60.7	60.7	60.7	70	50.9	0	0	---	0.00	29.912 
23:00	60.5	60.5	60.5	71	51.0	0	0	---	0.00	29.912 
23:05	60.4	60.4	60.4	72	51.3	0	0	---	0.00	29.912 
23:10	60.2	60.2	60.2	72	51.1	0	0	---	0.00	29.912 
23:15	59.9	59.9	59.9	73	51.2	0	0	---	0.00	29.907 
23:20	59.8	59.8	59.8	73	51.1	0	0	---	0.00	29.907 
23:25	59.6	59.6	59.6	74	51.3	0	0	---	0.00	29.907 
23:30	59.6	59.6	59.6	75	51.7	0	0	---	0.00	29.911 
23:35	59.5	59.5	59.5	75	51.6	0	0	---	0.00	29.911 
23:40	59.5	59.5	59.5	76	51.9	0	0	---	0.00	29.911 
23:45	59.3	59.3	59.3	76	51.7	0	0	---	0.00	29.910 
23:50	59.3	59.3	59.3	75	51.4	0	0	---	0.00	29.910 
23:55	59.6	59.6	59.6	74	51.3	0	0	---	0.00	29.910 

CoCoRaHS
IN-AL-39
A2 Web Hosting
Creative Commons License
GoDaddy
search engine by freefind advanced

loaded 2018-11-13 01:39:40 • last modified 2010-11-18 10:43:29
Privacy PolicyDisclaimer
• wx.awcolley.com is powered by PmWiki v.2002016 •
• all content (unless otherwise noted) © 2018 A W Colley